Data for 11/20/2009

Time Sea-Level Adjusted Pressure Absolute Pressure Temperature Relative Humidity Dew Point   
(mb) (inHg) (mb) (inHg) (C) (F) (%) (C) (F)
00:05 1019 30.09 849 25.07 1.5 34.7 42 -10 14.1
00:10 1019 30.09 849 25.07 1.6 35 42 -10 14.1
00:15 1019 30.09 849 25.07 1.5 34.7 41 -10.4 13.3
00:20 1019 30.09 848 25.04 2.1 35.8 39 -10.6 12.9
00:25 1019 30.09 849 25.07 2.4 36.3 39 -10.2 13.6
00:30 1019 30.09 848 25.04 2.3 36.1 39 -10.3 13.4
00:35 1019 30.09 848 25.04 2.2 36 40 -9.9 14.1
00:40 1019 30.09 848 25.04 2.1 35.8 41 -9.9 14.2
00:45 1019 30.09 848 25.04 1.9 35.5 41 -10 14
00:50 1019 30.09 848 25.04 1.8 35.3 40 -10.4 13.2
00:55 1019 30.09 848 25.04 1.9 35.5 39 -10.5 13.1
01:00 1019 30.09 848 25.04 2.3 36.1 38 -10.5 13.1
01:05 1019 30.09 848 25.04 2.3 36.2 39 -10.1 13.8
01:10 1019 30.09 848 25.04 2 35.7 41 -10 14
01:15 1019 30.09 848 25.04 2 35.7 39 -10.5 13
01:20 1019 30.09 848 25.04 2.2 35.9 39 -10.3 13.4
01:25 1019 30.09 848 25.04 2.4 36.4 39 -10.3 13.4
01:30 1019 30.09 848 25.04 2.3 36.1 39 -10.2 13.6
01:35 1019 30.09 848 25.04 2.2 36 39 -10.4 13.2
01:40 1019 30.09 848 25.04 2.3 36.1 38 -10.7 12.8
01:45 1019 30.09 848 25.04 2.2 36 40 -10 14
01:50 1019 30.09 848 25.04 2.1 35.7 40 -10.1 13.7
01:55 1019 30.09 848 25.04 2.3 36.1 39 -10.2 13.6
02:00 1018 30.06 848 25.04 2.2 36 39 -10.2 13.6
02:05 1018 30.06 848 25.04 2.4 36.3 39 -10.2 13.6
02:10 1018 30.06 848 25.04 2.2 35.9 41 -9.8 14.4
02:15 1018 30.06 848 25.04 1.9 35.4 42 -9.7 14.6
02:20 1018 30.06 848 25.04 1.7 35 44 -9.3 15.3
02:25 1018 30.06 848 25.04 1.5 34.6 43 -9.9 14.2
02:30 1018 30.06 848 25.04 2 35.6 41 -9.9 14.2
02:35 1018 30.06 848 25.04 2.2 35.9 42 -9.5 14.9
02:40 1018 30.06 848 25.04 2.2 36 41 -9.9 14.3
02:45 1018 30.06 848 25.04 2.6 36.7 39 -10.1 13.8
02:50 1018 30.06 848 25.04 2.7 36.9 39 -9.8 14.3
02:55 1018 30.06 848 25.04 2.6 36.7 39 -9.9 14.2
03:00 1018 30.06 848 25.04 2.5 36.5 40 -9.8 14.4
03:05 1018 30.06 848 25.04 1.9 35.5 44 -9.2 15.5
03:10 1018 30.06 847 25.01 1.5 34.6 44 -9.5 15
03:15 1018 30.06 847 25.01 1.9 35.4 40 -10.3 13.5
03:20 1018 30.06 847 25.01 2.5 36.6 40 -9.6 14.7
03:25 1018 30.06 847 25.01 2.4 36.4 40 -9.8 14.4
03:30 1018 30.06 847 25.01 2.4 36.3 40 -9.9 14.3
03:35 1018 30.06 847 25.01 2.6 36.7 39 -10.1 13.8
03:40 1018 30.06 847 25.01 2.8 37 39 -10 14.1
03:45 1018 30.06 847 25.01 2.8 37.1 40 -9.5 14.9
03:50 1018 30.06 847 25.01 2.6 36.6 40 -9.6 14.7
03:55 1018 30.06 847 25.01 2.4 36.4 41 -9.6 14.7
04:00 1018 30.06 847 25.01 2.7 36.8 39 -10 13.9
04:05 1017 30.03 847 25.01 3 37.3 38 -10 14
04:10 1017 30.03 847 25.01 3.1 37.6 39 -9.6 14.7
04:15 1017 30.03 847 25.01 2.9 37.2 40 -9.5 15
04:20 1017 30.03 847 25.01 2.8 37 39 -9.9 14.1
04:25 1017 30.03 846 24.98 2.9 37.3 39 -9.6 14.7
04:30 1017 30.03 846 24.98 2.9 37.2 39 -9.9 14.2
04:35 1017 30.03 846 24.98 3 37.5 37 -10.4 13.4
04:40 1017 30.03 846 24.98 3.1 37.7 37 -10.2 13.7
04:45 1017 30.03 846 24.98 3.1 37.5 38 -9.7 14.5
04:50 1017 30.03 846 24.98 3.2 37.7 36 -10.4 13.3
04:55 1017 30.03 846 24.98 3.2 37.7 37 -10.3 13.5
05:00 1017 30.03 846 24.98 3.1 37.6 37 -10.3 13.4
05:05 1017 30.03 846 24.98 3 37.4 37 -10.4 13.3
05:10 1017 30.03 846 24.98 3 37.3 37 -10.5 13.2
05:15 1017 30.03 846 24.98 3 37.4 37 -10.3 13.5
05:20 1017 30.03 846 24.98 3 37.3 36 -10.6 12.9
05:25 1017 30.03 846 24.98 3 37.4 38 -10 13.9
05:30 1017 30.03 846 24.98 2.6 36.7 41 -9.5 15
05:35 1017 30.03 846 24.98 2.1 35.8 42 -9.4 15.1
05:40 1017 30.03 846 24.98 1.9 35.3 44 -9.3 15.3
05:45 1017 30.03 846 24.98 1.6 34.9 44 -9.3 15.3
05:50 1017 30.03 846 24.98 1.6 35 47 -8.6 16.6
05:55 1017 30.03 846 24.98 1 33.9 48 -8.8 16.2
06:00 1016 30 846 24.98 0.8 33.5 50 -8.5 16.7
06:05 1016 30 846 24.98 0.6 33 49 -8.9 15.9
06:10 1016 30 846 24.98 0.8 33.4 48 -8.9 15.9
06:15 1016 30 845 24.95 1 33.8 47 -9.2 15.4
06:20 1016 30 845 24.95 0.8 33.4 47 -9.4 15.1
06:25 1016 30 845 24.95 1.1 33.9 45 -9.7 14.6
06:30 1016 30 845 24.95 0.9 33.6 45 -9.7 14.5
06:35 1016 30 845 24.95 0.8 33.4 44 -10.1 13.8
06:40 1016 30 845 24.95 0.9 33.7 44 -10.1 13.8
06:45 1016 30 845 24.95 1.1 34 42 -10.3 13.4
06:50 1016 30 845 24.95 0.9 33.6 45 -9.7 14.5
06:55 1016 30 845 24.95 0.5 32.8 46 -9.8 14.3
07:00 1016 30 845 24.95 0.5 32.9 46 -10 14.1
07:05 1016 30 845 24.95 0.7 33.3 43 -10.5 13.2
07:10 1016 30 845 24.95 0.9 33.6 46 -9.5 14.9
07:15 1016 30 845 24.95 0.4 32.8 46 -9.9 14.2
07:20 1016 30 845 24.95 0.3 32.6 45 -10.3 13.5
07:25 1016 30 845 24.95 0.9 33.6 41 -10.9 12.4
07:30 1016 30 845 24.95 1.1 34 41 -10.7 12.8
07:35 1016 30 845 24.95 1.3 34.3 40 -11 12.2
07:40 1016 30 845 24.95 1.5 34.6 38 -11.2 11.8
07:45 1016 30 845 24.95 1.6 34.9 39 -10.9 12.4
07:50 1016 30 845 24.95 1.6 34.8 38 -11.3 11.7
07:55 1016 30 845 24.95 1.5 34.7 41 -10.3 13.5
08:00 1016 30 845 24.95 1.2 34.2 41 -10.6 13
08:05 1016 30 845 24.95 1.5 34.7 41 -10.3 13.4
08:10 1016 30 845 24.95 1.2 34.2 41 -10.6 13
08:15 1016 30 845 24.95 1.3 34.3 40 -10.9 12.4
08:20 1016 30 845 24.95 1.6 34.9 40 -10.5 13.1
08:25 1015 29.97 845 24.95 1.5 34.8 38 -11.2 11.9
08:30 1015 29.97 845 24.95 1.7 35.1 39 -10.8 12.6
08:35 1015 29.97 844 24.92 2 35.5 37 -11.3 11.6
08:40 1015 29.97 844 24.92 2.3 36.2 35 -11.7 11
08:45 1015 29.97 844 24.92 2.6 36.7 34 -11.9 10.6
08:50 1015 29.97 844 24.92 3 37.4 33 -11.9 10.6
08:55 1015 29.97 844 24.92 3 37.4 34 -11.4 11.4
09:00 1015 29.97 844 24.92 2.9 37.2 32 -12.1 10.1
09:05 1015 29.97 844 24.92 3.6 38.6 32 -11.6 11
09:10 1015 29.97 844 24.92 3.8 38.8 31 -11.7 10.9
09:15 1015 29.97 844 24.92 3.8 38.8 31 -12 10.4
09:20 1015 29.97 844 24.92 3.8 38.8 32 -11.5 11.2
09:25 1015 29.97 844 24.92 3.9 38.9 29 -12.5 9.6
09:30 1015 29.97 844 24.92 4.2 39.5 30 -11.7 10.9
09:35 1015 29.97 844 24.92 4.3 39.8 29 -12.3 9.8
09:40 1014 29.94 844 24.92 4.4 39.9 29 -12.2 10.1
09:45 1014 29.94 844 24.92 4.4 40 30 -11.7 10.9
09:50 1014 29.94 843 24.89 4.6 40.2 27 -12.9 8.7
09:55 1014 29.94 843 24.89 4.9 40.7 30 -11.3 11.7
10:00 1014 29.94 843 24.89 4.6 40.3 29 -11.9 10.6
10:05 1014 29.94 843 24.89 4.8 40.7 27 -12.5 9.5
10:10 1014 29.94 843 24.89 5.4 41.8 27 -12.2 10.1
10:15 1014 29.94 843 24.89 5.7 42.2 27 -12 10.4
10:20 1014 29.94 843 24.89 5.7 42.3 28 -11.5 11.3
10:25 1014 29.94 843 24.89 5.7 42.3 28 -11.4 11.4
10:30 1014 29.94 843 24.89 5.7 42.3 28 -11.3 11.7
10:35 1014 29.94 843 24.89 5.9 42.6 29 -10.8 12.6
10:40 1013 29.91 843 24.89 6.4 43.6 27 -11 12.1
10:45 1013 29.91 843 24.89 6.4 43.6 29 -10.3 13.5
10:50 1013 29.91 842 24.86 6.2 43.2 36 -7.7 18.1
10:55 1013 29.91 842 24.86 4.9 40.9 36 -9 15.8
11:00 1013 29.91 842 24.86 5.5 41.8 34 -9.2 15.4
11:05 1013 29.91 842 24.86 6 42.8 37 -7.7 18.1
11:10 1013 29.91 842 24.86 6.5 43.7 35 -8 17.6
11:15 1013 29.91 842 24.86 6.9 44.4 33 -8.3 17.1
11:20 1013 29.91 842 24.86 7.3 45.1 31 -8.8 16.1
11:25 1012 29.88 842 24.86 7.4 45.4 31 -8.7 16.4
11:30 1012 29.88 841 24.83 7.7 45.8 30 -8.6 16.4
11:35 1012 29.88 841 24.83 8.3 46.9 29 -8.9 15.9
11:40 1012 29.88 841 24.83 8.8 47.8 32 -7.1 19.2
11:45 1012 29.88 841 24.83 8.3 47 29 -8.6 16.6
11:50 1012 29.88 841 24.83 9.2 48.5 31 -6.9 19.6
11:55 1012 29.88 841 24.83 9 48.1 34 -6.2 20.9
12:00 1012 29.88 841 24.83 8.8 47.9 23 -11 12.1
12:05 1011 29.85 841 24.83 8.9 48 26 -9.7 14.6
12:10 1011 29.85 841 24.83 9.7 49.4 31 -6.7 19.9
12:15 1011 29.85 841 24.83 9.3 48.7 31 -6.8 19.7
12:20 1011 29.85 840 24.81 9.6 49.2 18 -13.9 6.9
12:25 1011 29.85 840 24.81 10.7 51.3 25 -8.4 16.8
12:30 1011 29.85 840 24.81 10.1 50.1 27 -8.1 17.5
12:35 1011 29.85 840 24.81 9.2 48.6 31 -6.9 19.6
12:40 1011 29.85 840 24.81 8.4 47.1 34 -6.4 20.5
12:45 1011 29.85 840 24.81 9 48.2 34 -5.9 21.4
12:50 1011 29.85 840 24.81 8.9 48.1 34 -6 21.3
12:55 1011 29.85 840 24.81 8.2 46.8 34 -6.8 19.8
13:00 1011 29.85 840 24.81 6.7 44 35 -7.6 18.3
13:05 1011 29.85 840 24.81 6.5 43.7 33 -8.8 16.2
13:10 1011 29.85 840 24.81 6.9 44.3 33 -8.3 17.1
13:15 1011 29.85 840 24.81 6.5 43.8 34 -8.2 17.3
13:20 1010 29.83 840 24.81 6.5 43.8 32 -9.1 15.7
13:25 1010 29.83 840 24.81 6.3 43.3 31 -9.6 14.8
13:30 1010 29.83 839 24.78 6.1 43 36 -7.9 17.9
13:35 1010 29.83 839 24.78 6.5 43.6 31 -9.3 15.2
13:40 1010 29.83 839 24.78 6 42.8 31 -9.8 14.4
13:45 1010 29.83 839 24.78 7.1 44.7 31 -8.8 16.2
13:50 1010 29.83 839 24.78 7.5 45.4 29 -9.4 15.1
13:55 1010 29.83 839 24.78 6.9 44.5 31 -8.9 15.9
14:00 1009 29.8 839 24.78 7.1 44.8 31 -9 15.7
14:05 1009 29.8 838 24.75 7.1 44.8 28 -10.2 13.7
14:10 1009 29.8 838 24.75 7.1 44.7 30 -9.2 15.4
14:15 1009 29.8 838 24.75 6.8 44.3 32 -8.7 16.3
14:20 1009 29.8 838 24.75 6.5 43.6 30 -10 14
14:25 1009 29.8 838 24.75 6.4 43.5 20 -14.9 5.2
14:30 1009 29.8 838 24.75 7.5 45.5 12 -20.1 -4.2
14:35 1009 29.8 838 24.75 9.5 49.2 25 -9.7 14.6
14:40 1008 29.77 838 24.75 8 46.5 16 -16.4 2.5
14:45 1008 29.77 838 24.75 9.3 48.7 22 -11.7 11
14:50 1009 29.8 838 24.75 8 46.4 28 -9.5 14.9
14:55 1008 29.77 838 24.75 7.8 46.1 25 -11.1 12
15:00 1008 29.77 838 24.75 7.7 45.9 28 -9.6 14.7
15:05 1008 29.77 838 24.75 7.7 45.9 23 -12.4 9.7
15:10 1008 29.77 838 24.75 8.7 47.6 21 -12.5 9.4
15:15 1008 29.77 838 24.75 9 48.2 22 -11.5 11.3
15:20 1008 29.77 838 24.75 8.5 47.2 22 -12.1 10.3
15:25 1008 29.77 837 24.72 8.7 47.6 23 -11.6 11.1
15:30 1008 29.77 837 24.72 8.6 47.4 23 -11.6 11.2
15:35 1008 29.77 837 24.72 8.7 47.7 20 -13 8.5
15:40 1008 29.77 837 24.72 8.9 48.1 19 -13.2 8.2
15:45 1008 29.77 837 24.72 9.2 48.5 17 -15 5
15:50 1008 29.77 837 24.72 9.3 48.8 19 -13.4 7.8
15:55 1008 29.77 837 24.72 9.4 49 16 -15.6 3.9
16:00 1008 29.77 837 24.72 10.1 50.1 12 -18.1 -0.5
16:05 1008 29.77 837 24.72 9.8 49.7 19 -12.8 8.9
16:10 1008 29.77 837 24.72 9.2 48.6 13 -17.7 0.2
16:15 1007 29.74 837 24.72 9.9 49.8 12 -17.9 -0.2
16:20 1007 29.74 837 24.72 10.1 50.2 15 -15.5 4.1
16:25 1007 29.74 837 24.72 9.8 49.6 18 -13.5 7.6
16:30 1007 29.74 836 24.69 9.6 49.2 12 -18.1 -0.7
16:35 1007 29.74 836 24.69 9.8 49.6 21 -11.3 11.7
16:40 1007 29.74 836 24.69 8.7 47.6 16 -16.1 2.9
16:45 1007 29.74 836 24.69 9.1 48.4 15 -16.4 2.5
16:50 1007 29.74 836 24.69 9.7 49.4 14 -16.4 2.5
16:55 1007 29.74 836 24.69 9.1 48.4 23 -10.8 12.6
17:00 1007 29.74 836 24.69 7.4 45.3 20 -14.5 5.9
17:05 1007 29.74 836 24.69 8.2 46.7 22 -12.5 9.5
17:10 1007 29.74 836 24.69 7.7 45.9 19 -14.5 5.9
17:15 1006 29.71 836 24.69 8.1 46.5 18 -14.9 5.1
17:20 1006 29.71 835 24.66 8.3 47 19 -14 6.8
17:25 1006 29.71 836 24.69 7.5 45.5 22 -12.7 9.1
17:30 1006 29.71 835 24.66 7.1 44.7 19 -15.4 4.3
17:35 1006 29.71 835 24.66 7.8 46 18 -14.9 5.2
17:40 1006 29.71 835 24.66 8.2 46.7 19 -14.4 6.1
17:45 1006 29.71 835 24.66 7.6 45.7 21 -13.5 7.7
17:50 1006 29.71 835 24.66 7.1 44.7 20 -14.4 6.1
17:55 1006 29.71 835 24.66 7.3 45.1 18 -15.3 4.4
18:00 1006 29.71 835 24.66 7.6 45.6 17 -15.8 3.5
18:05 1006 29.71 835 24.66 7.9 46.1 18 -14.9 5.2
18:10 1006 29.71 835 24.66 8.2 46.8 18 -15.1 4.8
18:15 1006 29.71 835 24.66 8.2 46.7 17 -15.8 3.5
18:20 1006 29.71 835 24.66 8.4 47.1 18 -14.6 5.7
18:25 1005 29.68 835 24.66 8.3 47 20 -13.4 7.9
18:30 1006 29.71 835 24.66 8 46.4 20 -13.9 6.9
18:35 1005 29.68 835 24.66 7.8 46.1 22 -12.8 8.9
18:40 1005 29.68 835 24.66 7.5 45.5 21 -13.7 7.4
18:45 1005 29.68 835 24.66 7.6 45.8 21 -13.2 8.2
18:50 1005 29.68 835 24.66 7.2 44.9 20 -14.2 6.5
18:55 1005 29.68 835 24.66 7.3 45.1 20 -14.6 5.7
19:00 1005 29.68 834 24.63 7.4 45.3 23 -12.7 9.2
19:05 1005 29.68 834 24.63 7.1 44.7 21 -13.6 7.4
19:10 1005 29.68 834 24.63 7.4 45.3 24 -12.1 10.3
19:15 1005 29.68 834 24.63 7.2 45 21 -13.6 7.4
19:20 1005 29.68 834 24.63 7.4 45.4 21 -13.7 7.3
19:25 1005 29.68 834 24.63 7.8 46 20 -14.1 6.7
19:30 1005 29.68 834 24.63 7.9 46.2 20 -13.6 7.4
19:35 1005 29.68 834 24.63 7.9 46.2 22 -12.8 8.9
19:40 1005 29.68 834 24.63 6.9 44.4 25 -11.8 10.7
19:45 1005 29.68 834 24.63 6.8 44.2 22 -13.7 7.4
19:50 1005 29.68 834 24.63 7.9 46.2 21 -12.9 8.8
19:55 1005 29.68 834 24.63 8 46.4 22 -12.8 9
20:00 1005 29.68 834 24.63 8.3 46.9 22 -12.3 9.8
20:05 1004 29.65 834 24.63 7.7 45.9 23 -12.1 10.1
20:10 1004 29.65 834 24.63 6.8 44.3 23 -13.1 8.4
20:15 1004 29.65 834 24.63 6.6 43.8 24 -12.9 8.8
20:20 1004 29.65 833 24.6 6.4 43.6 24 -12.6 9.3
20:25 1004 29.65 833 24.6 6.8 44.2 23 -13 8.6
20:30 1004 29.65 834 24.63 7.6 45.6 23 -12.1 10.2
20:35 1004 29.65 834 24.63 7.1 44.7 24 -12.3 9.9
20:40 1004 29.65 834 24.63 7.3 45.1 23 -12.7 9.1
20:45 1004 29.65 834 24.63 7.8 46 22 -12.5 9.5
20:50 1004 29.65 833 24.6 9.3 48.8 22 -11.6 11.1
20:55 1004 29.65 833 24.6 9.6 49.3 20 -12 10.3
21:00 1004 29.65 833 24.6 9.6 49.2 21 -11.7 10.9
21:05 1004 29.65 833 24.6 9.8 49.7 20 -12.2 10
21:10 1004 29.65 833 24.6 10 49.9 19 -12.8 8.9
21:15 1004 29.65 833 24.6 9.9 49.8 20 -12.3 9.9
21:20 1004 29.65 833 24.6 9.8 49.7 19 -12.6 9.4
21:25 1004 29.65 833 24.6 9.9 49.8 19 -12.7 9.1
21:30 1003 29.62 833 24.6 10 50 20 -11.8 10.8
21:35 1003 29.62 833 24.6 10.1 50.1 20 -12 10.5
21:40 1003 29.62 832 24.57 9.9 49.9 20 -12.3 9.9
21:45 1003 29.62 832 24.57 9.9 49.7 19 -12.7 9.1
21:50 1003 29.62 832 24.57 9.9 49.8 21 -11.6 11.1
21:55 1003 29.62 832 24.57 9.9 49.7 22 -10.9 12.4
22:00 1003 29.62 832 24.57 9.7 49.5 21 -11.7 10.9
22:05 1003 29.62 832 24.57 9.9 49.7 22 -11.2 11.9
22:10 1003 29.62 832 24.57 10 50 20 -11.7 10.9
22:15 1003 29.62 832 24.57 10 49.9 21 -11.1 12
22:20 1003 29.62 832 24.57 9.8 49.7 20 -12 10.5
22:25 1003 29.62 832 24.57 9.7 49.5 22 -10.8 12.5
22:30 1003 29.62 832 24.57 9.5 49.2 21 -11.6 11.1
22:35 1003 29.62 832 24.57 9.9 49.8 21 -11.3 11.7
22:40 1003 29.62 832 24.57 9.7 49.5 23 -10.7 12.8
22:45 1003 29.62 832 24.57 9.6 49.2 22 -11.4 11.5
22:50 1003 29.62 832 24.57 9.7 49.4 23 -10.5 13.1
22:55 1003 29.62 832 24.57 9.4 49 24 -10.4 13.3
23:00 1003 29.62 832 24.57 9.6 49.2 21 -11.5 11.3
23:05 1003 29.62 832 24.57 9.7 49.4 23 -10.7 12.8
23:10 1003 29.62 832 24.57 9.7 49.4 23 -10.7 12.7
23:15 1003 29.62 832 24.57 9.5 49.1 22 -11.1 12
23:20 1003 29.62 832 24.57 9.7 49.4 23 -10.6 13
23:25 1003 29.62 832 24.57 9.4 49 21 -11.8 10.7
23:30 1003 29.62 832 24.57 9.5 49.1 23 -10.7 12.7
23:35 1003 29.62 832 24.57 9.1 48.4 24 -10.6 13
23:40 1003 29.62 832 24.57 9 48.2 24 -10.6 13
23:45 1003 29.62 832 24.57 8.9 48 25 -10.3 13.5
23:50 1003 29.62 832 24.57 8.7 47.7 26 -10 14.1
23:55 1003 29.62 832 24.57 8.6 47.5 24 -10.8 12.5
24:00 1003 29.62 832 24.57 8.9 47.9 24 -10.4 13.3